sensor_id;sensor_type;location;lat;lon;timestamp;pressure;altitude;pressure_sealevel;temperature;humidity
25238;BME280;13185;50.872;5.306;2024-01-16T00:00:34;100742.59;;;-0.15;100.00
25238;BME280;13185;50.872;5.306;2024-01-16T00:02:59;100743.53;;;-0.18;100.00
25238;BME280;13185;50.872;5.306;2024-01-16T00:05:25;100740.94;;;-0.21;100.00
25238;BME280;13185;50.872;5.306;2024-01-16T00:07:51;100747.97;;;-0.20;100.00
25238;BME280;13185;50.872;5.306;2024-01-16T00:10:16;100743.63;;;-0.22;100.00
25238;BME280;13185;50.872;5.306;2024-01-16T00:12:42;100747.13;;;-0.20;100.00
25238;BME280;13185;50.872;5.306;2024-01-16T00:15:08;100739.22;;;-0.20;100.00
25238;BME280;13185;50.872;5.306;2024-01-16T00:17:34;100746.16;;;-0.18;100.00
25238;BME280;13185;50.872;5.306;2024-01-16T00:20:00;100744.44;;;-0.19;100.00
25238;BME280;13185;50.872;5.306;2024-01-16T00:22:27;100744.41;;;-0.17;100.00
25238;BME280;13185;50.872;5.306;2024-01-16T00:24:52;100747.88;;;-0.15;100.00
25238;BME280;13185;50.872;5.306;2024-01-16T00:27:18;100748.78;;;-0.16;100.00
25238;BME280;13185;50.872;5.306;2024-01-16T00:29:43;100752.28;;;-0.16;100.00
25238;BME280;13185;50.872;5.306;2024-01-16T00:32:09;100747.94;;;-0.18;100.00
25238;BME280;13185;50.872;5.306;2024-01-16T00:34:34;100750.63;;;-0.20;100.00
25238;BME280;13185;50.872;5.306;2024-01-16T00:37:00;100755.03;;;-0.20;100.00
25238;BME280;13185;50.872;5.306;2024-01-16T00:39:25;100754.13;;;-0.21;100.00
25238;BME280;13185;50.872;5.306;2024-01-16T00:41:51;100750.63;;;-0.21;100.00
25238;BME280;13185;50.872;5.306;2024-01-16T00:44:16;100753.25;;;-0.20;100.00
25238;BME280;13185;50.872;5.306;2024-01-16T00:46:42;100761.16;;;-0.20;100.00
25238;BME280;13185;50.872;5.306;2024-01-16T00:49:07;100748.91;;;-0.22;100.00
25238;BME280;13185;50.872;5.306;2024-01-16T00:51:33;100748.00;;;-0.21;100.00
25238;BME280;13185;50.872;5.306;2024-01-16T00:53:59;100752.38;;;-0.20;100.00
25238;BME280;13185;50.872;5.306;2024-01-16T00:56:24;100758.53;;;-0.21;100.00
25238;BME280;13185;50.872;5.306;2024-01-16T00:58:53;100757.66;;;-0.20;100.00
25238;BME280;13185;50.872;5.306;2024-01-16T01:01:19;100764.66;;;-0.21;100.00
25238;BME280;13185;50.872;5.306;2024-01-16T01:03:45;100767.34;;;-0.22;100.00
25238;BME280;13185;50.872;5.306;2024-01-16T01:06:11;100765.63;;;-0.23;100.00
25238;BME280;13185;50.872;5.306;2024-01-16T01:08:37;100772.63;;;-0.22;100.00
25238;BME280;13185;50.872;5.306;2024-01-16T01:11:02;100769.97;;;-0.22;100.00
25238;BME280;13185;50.872;5.306;2024-01-16T01:13:28;100778.75;;;-0.20;100.00
25238;BME280;13185;50.872;5.306;2024-01-16T01:15:54;100783.97;;;-0.19;100.00
25238;BME280;13185;50.872;5.306;2024-01-16T01:18:19;100781.34;;;-0.19;100.00
25238;BME280;13185;50.872;5.306;2024-01-16T01:20:45;100775.22;;;-0.19;100.00
25238;BME280;13185;50.872;5.306;2024-01-16T01:23:10;100775.25;;;-0.22;100.00
25238;BME280;13185;50.872;5.306;2024-01-16T01:25:36;100774.34;;;-0.20;100.00
25238;BME280;13185;50.872;5.306;2024-01-16T01:28:01;100769.06;;;-0.20;100.00
25238;BME280;13185;50.872;5.306;2024-01-16T01:30:27;100777.81;;;-0.18;100.00
25238;BME280;13185;50.872;5.306;2024-01-16T01:32:52;100773.41;;;-0.17;100.00
25238;BME280;13185;50.872;5.306;2024-01-16T01:35:18;100781.31;;;-0.17;100.00
25238;BME280;13185;50.872;5.306;2024-01-16T01:37:45;100782.16;;;-0.17;100.00
25238;BME280;13185;50.872;5.306;2024-01-16T01:40:11;100784.84;;;-0.18;100.00
25238;BME280;13185;50.872;5.306;2024-01-16T01:42:38;100774.34;;;-0.20;100.00
25238;BME280;13185;50.872;5.306;2024-01-16T01:45:03;100783.97;;;-0.19;100.00
25238;BME280;13185;50.872;5.306;2024-01-16T01:47:30;100784.00;;;-0.20;100.00
25238;BME280;13185;50.872;5.306;2024-01-16T01:49:56;100787.56;;;-0.23;100.00
25238;BME280;13185;50.872;5.306;2024-01-16T01:52:22;100782.28;;;-0.23;100.00
25238;BME280;13185;50.872;5.306;2024-01-16T01:54:48;100784.94;;;-0.23;100.00
25238;BME280;13185;50.872;5.306;2024-01-16T01:57:14;100788.47;;;-0.24;100.00
25238;BME280;13185;50.872;5.306;2024-01-16T01:59:39;100785.78;;;-0.22;100.00
25238;BME280;13185;50.872;5.306;2024-01-16T02:02:05;100785.75;;;-0.21;100.00
25238;BME280;13185;50.872;5.306;2024-01-16T02:04:31;100791.03;;;-0.21;100.00
25238;BME280;13185;50.872;5.306;2024-01-16T02:06:57;100787.53;;;-0.21;100.00
25238;BME280;13185;50.872;5.306;2024-01-16T02:09:23;100786.69;;;-0.23;100.00
25238;BME280;13185;50.872;5.306;2024-01-16T02:11:49;100794.56;;;-0.22;100.00
25238;BME280;13185;50.872;5.306;2024-01-16T02:14:14;100795.38;;;-0.18;100.00
25238;BME280;13185;50.872;5.306;2024-01-16T02:16:41;100794.56;;;-0.20;100.00
25238;BME280;13185;50.872;5.306;2024-01-16T02:19:07;100795.44;;;-0.21;100.00
25238;BME280;13185;50.872;5.306;2024-01-16T02:21:39;100784.03;;;-0.22;100.00
25238;BME280;13185;50.872;5.306;2024-01-16T02:24:07;100788.38;;;-0.21;100.00
25238;BME280;13185;50.872;5.306;2024-01-16T02:26:33;100784.06;;;-0.23;100.00
25238;BME280;13185;50.872;5.306;2024-01-16T02:29:01;100780.53;;;-0.22;100.00
25238;BME280;13185;50.872;5.306;2024-01-16T02:31:27;100782.25;;;-0.21;100.00
25238;BME280;13185;50.872;5.306;2024-01-16T02:33:53;100784.00;;;-0.20;100.00
25238;BME280;13185;50.872;5.306;2024-01-16T02:36:18;100775.25;;;-0.22;100.00
25238;BME280;13185;50.872;5.306;2024-01-16T02:38:44;100782.28;;;-0.23;100.00
25238;BME280;13185;50.872;5.306;2024-01-16T02:41:13;100783.19;;;-0.24;100.00
25238;BME280;13185;50.872;5.306;2024-01-16T02:43:39;100775.38;;;-0.27;100.00
25238;BME280;13185;50.872;5.306;2024-01-16T02:46:04;100780.72;;;-0.32;100.00
25238;BME280;13185;50.872;5.306;2024-01-16T02:48:30;100777.22;;;-0.32;100.00
25238;BME280;13185;50.872;5.306;2024-01-16T02:50:56;100786.00;;;-0.32;100.00
25238;BME280;13185;50.872;5.306;2024-01-16T02:53:21;100774.66;;;-0.35;100.00
25238;BME280;13185;50.872;5.306;2024-01-16T02:55:46;100779.94;;;-0.35;100.00
25238;BME280;13185;50.872;5.306;2024-01-16T02:58:12;100768.53;;;-0.36;100.00
25238;BME280;13185;50.872;5.306;2024-01-16T03:00:38;100769.41;;;-0.37;100.00
25238;BME280;13185;50.872;5.306;2024-01-16T03:03:03;100778.28;;;-0.39;100.00
25238;BME280;13185;50.872;5.306;2024-01-16T03:05:29;100766.91;;;-0.41;100.00
25238;BME280;13185;50.872;5.306;2024-01-16T03:07:55;100768.66;;;-0.43;100.00
25238;BME280;13185;50.872;5.306;2024-01-16T03:10:20;100773.97;;;-0.45;100.00
25238;BME280;13185;50.872;5.306;2024-01-16T03:12:46;100763.50;;;-0.48;100.00
25238;BME280;13185;50.872;5.306;2024-01-16T03:15:12;100760.88;;;-0.48;100.00
25238;BME280;13185;50.872;5.306;2024-01-16T03:17:37;100759.19;;;-0.50;100.00
25238;BME280;13185;50.872;5.306;2024-01-16T03:20:03;100754.91;;;-0.56;100.00
25238;BME280;13185;50.872;5.306;2024-01-16T03:22:29;100757.66;;;-0.61;100.00
25238;BME280;13185;50.872;5.306;2024-01-16T03:24:54;100753.28;;;-0.63;100.00
25238;BME280;13185;50.872;5.306;2024-01-16T03:27:20;100753.31;;;-0.65;100.00
25238;BME280;13185;50.872;5.306;2024-01-16T03:29:45;100765.69;;;-0.68;100.00
25238;BME280;13185;50.872;5.306;2024-01-16T03:32:11;100756.13;;;-0.74;100.00
25238;BME280;13185;50.872;5.306;2024-01-16T03:34:36;100767.53;;;-0.73;100.00
25238;BME280;13185;50.872;5.306;2024-01-16T03:37:02;100763.19;;;-0.76;100.00
25238;BME280;13185;50.872;5.306;2024-01-16T03:39:27;100759.78;;;-0.79;100.00
25238;BME280;13185;50.872;5.306;2024-01-16T03:41:53;100767.78;;;-0.85;100.00
25238;BME280;13185;50.872;5.306;2024-01-16T03:44:19;100759.94;;;-0.89;100.00
25238;BME280;13185;50.872;5.306;2024-01-16T03:46:44;100755.56;;;-0.88;100.00
25238;BME280;13185;50.872;5.306;2024-01-16T03:49:10;100746.84;;;-0.92;100.00
25238;BME280;13185;50.872;5.306;2024-01-16T03:51:35;100750.38;;;-0.94;100.00
25238;BME280;13185;50.872;5.306;2024-01-16T03:54:01;100753.09;;;-0.97;100.00
25238;BME280;13185;50.872;5.306;2024-01-16T03:56:26;100752.28;;;-1.01;100.00
25238;BME280;13185;50.872;5.306;2024-01-16T03:58:52;100741.75;;;-1.01;100.00
25238;BME280;13185;50.872;5.306;2024-01-16T04:01:17;100740.00;;;-1.00;100.00
25238;BME280;13185;50.872;5.306;2024-01-16T04:03:43;100734.81;;;-1.05;100.00
25238;BME280;13185;50.872;5.306;2024-01-16T04:06:18;100739.28;;;-1.08;100.00
25238;BME280;13185;50.872;5.306;2024-01-16T04:08:44;100730.50;;;-1.09;100.00
25238;BME280;13185;50.872;5.306;2024-01-16T04:11:13;100728.75;;;-1.08;100.00
25238;BME280;13185;50.872;5.306;2024-01-16T04:13:39;100730.53;;;-1.10;100.00
25238;BME280;13185;50.872;5.306;2024-01-16T04:16:05;100723.59;;;-1.13;100.00
25238;BME280;13185;50.872;5.306;2024-01-16T04:18:35;100728.88;;;-1.16;100.00
25238;BME280;13185;50.872;5.306;2024-01-16T04:21:01;100723.69;;;-1.19;100.00
25238;BME280;13185;50.872;5.306;2024-01-16T04:23:27;100729.84;;;-1.20;100.00
25238;BME280;13185;50.872;5.306;2024-01-16T04:25:52;100726.38;;;-1.22;100.00
25238;BME280;13185;50.872;5.306;2024-01-16T04:28:18;100724.66;;;-1.23;100.00
25238;BME280;13185;50.872;5.306;2024-01-16T04:30:44;100729.88;;;-1.22;100.00
25238;BME280;13185;50.872;5.306;2024-01-16T04:33:09;100728.13;;;-1.21;100.00
25238;BME280;13185;50.872;5.306;2024-01-16T04:35:35;100714.09;;;-1.22;100.00
25238;BME280;13185;50.872;5.306;2024-01-16T04:38:00;100720.22;;;-1.21;100.00
25238;BME280;13185;50.872;5.306;2024-01-16T04:40:26;100718.50;;;-1.22;100.00
25238;BME280;13185;50.872;5.306;2024-01-16T04:42:51;100716.72;;;-1.22;100.00
25238;BME280;13185;50.872;5.306;2024-01-16T04:45:17;100722.06;;;-1.25;100.00
25238;BME280;13185;50.872;5.306;2024-01-16T04:47:42;100728.19;;;-1.26;100.00
25238;BME280;13185;50.872;5.306;2024-01-16T04:50:08;100716.81;;;-1.28;100.00
25238;BME280;13185;50.872;5.306;2024-01-16T04:52:33;100715.97;;;-1.28;100.00
25238;BME280;13185;50.872;5.306;2024-01-16T04:54:59;100713.41;;;-1.31;100.00
25238;BME280;13185;50.872;5.306;2024-01-16T04:57:24;100712.56;;;-1.33;100.00
25238;BME280;13185;50.872;5.306;2024-01-16T04:59:50;100707.38;;;-1.38;100.00
25238;BME280;13185;50.872;5.306;2024-01-16T05:02:16;100705.59;;;-1.37;100.00
25238;BME280;13185;50.872;5.306;2024-01-16T05:04:42;100702.94;;;-1.36;100.00
25238;BME280;13185;50.872;5.306;2024-01-16T05:07:08;100704.72;;;-1.38;100.00
25238;BME280;13185;50.872;5.306;2024-01-16T05:09:33;100696.94;;;-1.42;100.00
25238;BME280;13185;50.872;5.306;2024-01-16T05:11:59;100699.63;;;-1.46;100.00
25238;BME280;13185;50.872;5.306;2024-01-16T05:14:24;100703.16;;;-1.48;100.00
25238;BME280;13185;50.872;5.306;2024-01-16T05:16:51;100697.19;;;-1.56;100.00
25238;BME280;13185;50.872;5.306;2024-01-16T05:19:17;100698.97;;;-1.58;100.00
25238;BME280;13185;50.872;5.306;2024-01-16T05:21:42;100711.28;;;-1.60;100.00
25238;BME280;13185;50.872;5.306;2024-01-16T05:24:08;100707.75;;;-1.59;100.00
25238;BME280;13185;50.872;5.306;2024-01-16T05:26:33;100699.91;;;-1.62;100.00
25238;BME280;13185;50.872;5.306;2024-01-16T05:28:59;100696.50;;;-1.66;100.00
25238;BME280;13185;50.872;5.306;2024-01-16T05:31:24;100709.63;;;-1.66;100.00
25238;BME280;13185;50.872;5.306;2024-01-16T05:33:50;100707.91;;;-1.68;100.00
25238;BME280;13185;50.872;5.306;2024-01-16T05:36:16;100714.06;;;-1.69;100.00
25238;BME280;13185;50.872;5.306;2024-01-16T05:38:41;100703.56;;;-1.71;100.00
25238;BME280;13185;50.872;5.306;2024-01-16T05:41:06;100699.22;;;-1.72;100.00
25238;BME280;13185;50.872;5.306;2024-01-16T05:43:32;100703.59;;;-1.72;100.00
25238;BME280;13185;50.872;5.306;2024-01-16T05:45:58;100700.09;;;-1.73;100.00
25238;BME280;13185;50.872;5.306;2024-01-16T05:48:23;100706.25;;;-1.74;100.00
25238;BME280;13185;50.872;5.306;2024-01-16T05:50:49;100702.78;;;-1.75;100.00
25238;BME280;13185;50.872;5.306;2024-01-16T05:53:14;100704.56;;;-1.78;100.00
25238;BME280;13185;50.872;5.306;2024-01-16T05:55:40;100705.50;;;-1.81;100.00
25238;BME280;13185;50.872;5.306;2024-01-16T05:58:05;100707.31;;;-1.84;100.00
25238;BME280;13185;50.872;5.306;2024-01-16T06:00:32;100706.47;;;-1.88;100.00
25238;BME280;13185;50.872;5.306;2024-01-16T06:02:59;100701.28;;;-1.91;100.00
25238;BME280;13185;50.872;5.306;2024-01-16T06:05:25;100698.66;;;-1.92;100.00
25238;BME280;13185;50.872;5.306;2024-01-16T06:07:50;100697.81;;;-1.93;100.00
25238;BME280;13185;50.872;5.306;2024-01-16T06:10:16;100695.25;;;-1.96;100.00
25238;BME280;13185;50.872;5.306;2024-01-16T06:12:42;100690.00;;;-1.97;100.00
25238;BME280;13185;50.872;5.306;2024-01-16T06:15:07;100692.66;;;-2.00;100.00
25238;BME280;13185;50.872;5.306;2024-01-16T06:17:33;100690.06;;;-2.02;100.00
25238;BME280;13185;50.872;5.306;2024-01-16T06:19:59;100691.81;;;-2.03;100.00
25238;BME280;13185;50.872;5.306;2024-01-16T06:22:24;100692.75;;;-2.05;100.00
25238;BME280;13185;50.872;5.306;2024-01-16T06:24:50;100688.44;;;-2.08;100.00
25238;BME280;13185;50.872;5.306;2024-01-16T06:27:15;100690.19;;;-2.08;100.00
25238;BME280;13185;50.872;5.306;2024-01-16T06:29:48;100692.00;;;-2.13;100.00
25238;BME280;13185;50.872;5.306;2024-01-16T06:32:13;100700.84;;;-2.17;100.00
25238;BME280;13185;50.872;5.306;2024-01-16T06:34:39;100697.38;;;-2.22;100.00
25238;BME280;13185;50.872;5.306;2024-01-16T06:37:05;100699.16;;;-2.23;100.00
25238;BME280;13185;50.872;5.306;2024-01-16T06:39:30;100705.28;;;-2.22;100.00
25238;BME280;13185;50.872;5.306;2024-01-16T06:41:56;100706.16;;;-2.23;100.00
25238;BME280;13185;50.872;5.306;2024-01-16T06:44:21;100703.56;;;-2.25;100.00
25238;BME280;13185;50.872;5.306;2024-01-16T06:46:47;100707.09;;;-2.26;100.00
25238;BME280;13185;50.872;5.306;2024-01-16T06:49:13;100700.13;;;-2.28;100.00
25238;BME280;13185;50.872;5.306;2024-01-16T06:51:38;100701.91;;;-2.32;100.00
25238;BME280;13185;50.872;5.306;2024-01-16T06:54:04;100700.22;;;-2.36;100.00
25238;BME280;13185;50.872;5.306;2024-01-16T06:56:29;100702.91;;;-2.39;100.00
25238;BME280;13185;50.872;5.306;2024-01-16T06:58:55;100705.53;;;-2.41;100.00
25238;BME280;13185;50.872;5.306;2024-01-16T07:01:21;100713.44;;;-2.42;100.00
25238;BME280;13185;50.872;5.306;2024-01-16T07:03:46;100717.81;;;-2.43;100.00
25238;BME280;13185;50.872;5.306;2024-01-16T07:06:12;100715.22;;;-2.44;100.00
25238;BME280;13185;50.872;5.306;2024-01-16T07:08:37;100719.63;;;-2.46;100.00
25238;BME280;13185;50.872;5.306;2024-01-16T07:11:03;100717.91;;;-2.47;100.00
25238;BME280;13185;50.872;5.306;2024-01-16T07:13:33;100728.44;;;-2.49;100.00
25238;BME280;13185;50.872;5.306;2024-01-16T07:15:58;100724.94;;;-2.49;100.00
25238;BME280;13185;50.872;5.306;2024-01-16T07:18:24;100722.31;;;-2.49;100.00
25238;BME280;13185;50.872;5.306;2024-01-16T07:20:49;100724.06;;;-2.51;100.00
25238;BME280;13185;50.872;5.306;2024-01-16T07:23:15;100733.69;;;-2.52;100.00
25238;BME280;13185;50.872;5.306;2024-01-16T07:25:40;100736.38;;;-2.55;100.00
25238;BME280;13185;50.872;5.306;2024-01-16T07:28:06;100727.59;;;-2.54;100.00
25238;BME280;13185;50.872;5.306;2024-01-16T07:30:31;100722.34;;;-2.52;100.00
25238;BME280;13185;50.872;5.306;2024-01-16T07:32:57;100730.19;;;-2.51;100.00
25238;BME280;13185;50.872;5.306;2024-01-16T07:35:22;100724.94;;;-2.51;100.00
25238;BME280;13185;50.872;5.306;2024-01-16T07:37:48;100725.81;;;-2.49;100.00
25238;BME280;13185;50.872;5.306;2024-01-16T07:40:14;100720.56;;;-2.49;100.00
25238;BME280;13185;50.872;5.306;2024-01-16T07:42:42;100724.88;;;-2.46;100.00
25238;BME280;13185;50.872;5.306;2024-01-16T07:45:10;100738.81;;;-2.41;100.00
25238;BME280;13185;50.872;5.306;2024-01-16T07:47:36;100735.31;;;-2.42;100.00
25238;BME280;13185;50.872;5.306;2024-01-16T07:50:02;100735.28;;;-2.40;100.00
25238;BME280;13185;50.872;5.306;2024-01-16T07:52:27;100738.78;;;-2.38;100.00
25238;BME280;13185;50.872;5.306;2024-01-16T07:54:53;100738.75;;;-2.37;100.00
25238;BME280;13185;50.872;5.306;2024-01-16T07:57:19;100748.34;;;-2.34;100.00
25238;BME280;13185;50.872;5.306;2024-01-16T07:59:44;100745.69;;;-2.33;100.00
25238;BME280;13185;50.872;5.306;2024-01-16T08:02:10;100748.31;;;-2.31;100.00
25238;BME280;13185;50.872;5.306;2024-01-16T08:04:36;100757.00;;;-2.26;100.00
25238;BME280;13185;50.872;5.306;2024-01-16T08:07:01;100756.09;;;-2.25;100.00
25238;BME280;13185;50.872;5.306;2024-01-16T08:09:27;100747.28;;;-2.21;100.00
25238;BME280;13185;50.872;5.306;2024-01-16T08:11:53;100750.72;;;-2.16;100.00
25238;BME280;13185;50.872;5.306;2024-01-16T08:14:18;100758.50;;;-2.10;100.00
25238;BME280;13185;50.872;5.306;2024-01-16T08:16:44;100750.56;;;-2.05;100.00
25238;BME280;13185;50.872;5.306;2024-01-16T08:19:09;100753.13;;;-2.00;100.00
25238;BME280;13185;50.872;5.306;2024-01-16T08:21:35;100752.16;;;-1.95;100.00
25238;BME280;13185;50.872;5.306;2024-01-16T08:24:01;100756.47;;;-1.91;100.00
25238;BME280;13185;50.872;5.306;2024-01-16T08:26:27;100750.28;;;-1.88;100.00
25238;BME280;13185;50.872;5.306;2024-01-16T08:28:54;100750.25;;;-1.85;100.00
25238;BME280;13185;50.872;5.306;2024-01-16T08:31:19;100750.25;;;-1.85;100.00
25238;BME280;13185;50.872;5.306;2024-01-16T08:33:45;100745.84;;;-1.83;100.00
25238;BME280;13185;50.872;5.306;2024-01-16T08:36:11;100748.44;;;-1.82;100.00
25238;BME280;13185;50.872;5.306;2024-01-16T08:38:36;100743.16;;;-1.80;100.00
25238;BME280;13185;50.872;5.306;2024-01-16T08:41:02;100750.13;;;-1.76;100.00
25238;BME280;13185;50.872;5.306;2024-01-16T08:43:33;100753.56;;;-1.72;100.00
25238;BME280;13185;50.872;5.306;2024-01-16T08:46:01;100752.63;;;-1.70;100.00
25238;BME280;13185;50.872;5.306;2024-01-16T08:48:26;100755.19;;;-1.67;100.00
25238;BME280;13185;50.872;5.306;2024-01-16T08:50:52;100756.09;;;-1.68;100.00
25238;BME280;13185;50.872;5.306;2024-01-16T08:53:20;100766.63;;;-1.66;100.00
25238;BME280;13185;50.872;5.306;2024-01-16T08:55:45;100762.22;;;-1.66;100.00
25238;BME280;13185;50.872;5.306;2024-01-16T08:58:11;100761.28;;;-1.62;100.00
25238;BME280;13185;50.872;5.306;2024-01-16T09:00:36;100761.25;;;-1.60;100.00
25238;BME280;13185;50.872;5.306;2024-01-16T09:03:04;100766.50;;;-1.60;100.00
25238;BME280;13185;50.872;5.306;2024-01-16T09:05:29;100755.94;;;-1.59;100.00
25238;BME280;13185;50.872;5.306;2024-01-16T09:07:55;100756.81;;;-1.58;100.00
25238;BME280;13185;50.872;5.306;2024-01-16T09:10:20;100750.66;;;-1.56;100.00
25238;BME280;13185;50.872;5.306;2024-01-16T09:12:46;100749.69;;;-1.52;100.00
25238;BME280;13185;50.872;5.306;2024-01-16T09:15:11;100752.28;;;-1.49;100.00
25238;BME280;13185;50.872;5.306;2024-01-16T09:17:37;100745.25;;;-1.48;100.00
25238;BME280;13185;50.872;5.306;2024-01-16T09:20:02;100746.09;;;-1.44;100.00
25238;BME280;13185;50.872;5.306;2024-01-16T09:22:28;100745.16;;;-1.42;100.00
25238;BME280;13185;50.872;5.306;2024-01-16T09:24:53;100755.69;;;-1.42;100.00
25238;BME280;13185;50.872;5.306;2024-01-16T09:27:19;100741.63;;;-1.41;100.00
25238;BME280;13185;50.872;5.306;2024-01-16T09:29:45;100738.97;;;-1.39;100.00
25238;BME280;13185;50.872;5.306;2024-01-16T09:32:10;100730.19;;;-1.38;100.00
25238;BME280;13185;50.872;5.306;2024-01-16T09:34:36;100726.72;;;-1.40;100.00
25238;BME280;13185;50.872;5.306;2024-01-16T09:37:01;100729.25;;;-1.36;100.00
25238;BME280;13185;50.872;5.306;2024-01-16T09:39:29;100725.72;;;-1.33;100.00
25238;BME280;13185;50.872;5.306;2024-01-16T09:41:59;100723.91;;;-1.31;100.00
25238;BME280;13185;50.872;5.306;2024-01-16T09:44:28;100728.25;;;-1.29;100.00
25238;BME280;13185;50.872;5.306;2024-01-16T09:46:54;100724.69;;;-1.26;100.00
25238;BME280;13185;50.872;5.306;2024-01-16T09:49:21;100721.16;;;-1.25;100.00
25238;BME280;13185;50.872;5.306;2024-01-16T09:51:48;100714.16;;;-1.25;100.00
25238;BME280;13185;50.872;5.306;2024-01-16T09:54:14;100723.78;;;-1.25;100.00
25238;BME280;13185;50.872;5.306;2024-01-16T09:56:42;100722.06;;;-1.25;100.00
25238;BME280;13185;50.872;5.306;2024-01-16T09:59:09;100720.25;;;-1.23;100.00
25238;BME280;13185;50.872;5.306;2024-01-16T10:01:35;100714.13;;;-1.23;100.00
25238;BME280;13185;50.872;5.306;2024-01-16T10:04:02;100723.78;;;-1.24;100.00
25238;BME280;13185;50.872;5.306;2024-01-16T10:06:28;100711.53;;;-1.25;100.00
25238;BME280;13185;50.872;5.306;2024-01-16T10:08:55;100704.50;;;-1.24;100.00
25238;BME280;13185;50.872;5.306;2024-01-16T10:11:20;100704.47;;;-1.23;100.00
25238;BME280;13185;50.872;5.306;2024-01-16T10:13:46;100703.56;;;-1.22;100.00
25238;BME280;13185;50.872;5.306;2024-01-16T10:16:12;100692.97;;;-1.19;100.00
25238;BME280;13185;50.872;5.306;2024-01-16T10:18:38;100695.53;;;-1.16;100.00
25238;BME280;13185;50.872;5.306;2024-01-16T10:21:04;100695.53;;;-1.16;100.00
25238;BME280;13185;50.872;5.306;2024-01-16T10:23:31;100695.53;;;-1.14;100.00
25238;BME280;13185;50.872;5.306;2024-01-16T10:26:07;100693.72;;;-1.12;100.00
25238;BME280;13185;50.872;5.306;2024-01-16T10:28:33;100691.94;;;-1.10;100.00
25238;BME280;13185;50.872;5.306;2024-01-16T10:31:04;100691.94;;;-1.10;100.00
25238;BME280;13185;50.872;5.306;2024-01-16T10:33:29;100691.94;;;-1.10;100.00
25238;BME280;13185;50.872;5.306;2024-01-16T10:36:16;100693.69;;;-1.10;100.00
25238;BME280;13185;50.872;5.306;2024-01-16T10:38:45;100682.31;;;-1.11;100.00
25238;BME280;13185;50.872;5.306;2024-01-16T10:41:15;100686.75;;;-1.13;100.00
25238;BME280;13185;50.872;5.306;2024-01-16T10:43:42;100686.75;;;-1.13;100.00
25238;BME280;13185;50.872;5.306;2024-01-16T10:46:11;100673.53;;;-1.11;100.00
25238;BME280;13185;50.872;5.306;2024-01-16T10:48:39;100672.59;;;-1.09;100.00
25238;BME280;13185;50.872;5.306;2024-01-16T10:51:10;100683.97;;;-1.07;100.00
25238;BME280;13185;50.872;5.306;2024-01-16T10:53:41;100675.13;;;-1.03;100.00
25238;BME280;13185;50.872;5.306;2024-01-16T10:56:10;100675.06;;;-1.00;100.00
25238;BME280;13185;50.872;5.306;2024-01-16T10:58:40;100682.94;;;-1.00;100.00
25238;BME280;13185;50.872;5.306;2024-01-16T11:01:12;100680.25;;;-0.97;100.00
25238;BME280;13185;50.872;5.306;2024-01-16T11:03:43;100697.72;;;-0.93;100.00
25238;BME280;13185;50.872;5.306;2024-01-16T11:06:11;100689.75;;;-0.90;100.00
25238;BME280;13185;50.872;5.306;2024-01-16T11:08:38;100684.44;;;-0.87;100.00
25238;BME280;13185;50.872;5.306;2024-01-16T11:11:04;100674.69;;;-0.81;100.00
25238;BME280;13185;50.872;5.306;2024-01-16T11:13:32;100664.06;;;-0.78;100.00
25238;BME280;13185;50.872;5.306;2024-01-16T11:15:59;100661.38;;;-0.75;100.00
25238;BME280;13185;50.872;5.306;2024-01-16T11:18:27;100651.66;;;-0.73;100.00
25238;BME280;13185;50.872;5.306;2024-01-16T11:20:55;100649.88;;;-0.71;100.00
25238;BME280;13185;50.872;5.306;2024-01-16T11:23:22;100649.78;;;-0.67;100.00
25238;BME280;13185;50.872;5.306;2024-01-16T11:25:49;100666.34;;;-0.63;100.00
25238;BME280;13185;50.872;5.306;2024-01-16T11:28:15;100668.13;;;-0.62;100.00
25238;BME280;13185;50.872;5.306;2024-01-16T11:30:42;100663.66;;;-0.59;100.00
25238;BME280;13185;50.872;5.306;2024-01-16T11:39:17;100660.03;;;-0.54;100.00
25238;BME280;13185;50.872;5.306;2024-01-16T11:41:53;100652.06;;;-0.51;100.00
25238;BME280;13185;50.872;5.306;2024-01-16T11:44:48;100645.88;;;-0.49;100.00
25238;BME280;13185;50.872;5.306;2024-01-16T11:47:18;100644.00;;;-0.45;100.00
25238;BME280;13185;50.872;5.306;2024-01-16T11:49:44;100639.56;;;-0.43;100.00
25238;BME280;13185;50.872;5.306;2024-01-16T11:52:10;100643.03;;;-0.40;100.00
25238;BME280;13185;50.872;5.306;2024-01-16T11:54:38;100635.94;;;-0.38;100.00
25238;BME280;13185;50.872;5.306;2024-01-16T12:00:07;100624.53;;;-0.38;100.00
25238;BME280;13185;50.872;5.306;2024-01-16T12:02:51;100629.72;;;-0.35;100.00
25238;BME280;13185;50.872;5.306;2024-01-16T12:05:18;100634.91;;;-0.32;100.00
25238;BME280;13185;50.872;5.306;2024-01-16T12:07:49;100633.09;;;-0.28;100.00
25238;BME280;13185;50.872;5.306;2024-01-16T12:10:19;100626.06;;;-0.28;100.00
25238;BME280;13185;50.872;5.306;2024-01-16T12:12:46;100621.59;;;-0.26;100.00
25238;BME280;13185;50.872;5.306;2024-01-16T12:15:21;100624.09;;;-0.20;100.00
25238;BME280;13185;50.872;5.306;2024-01-16T12:17:58;100618.75;;;-0.17;100.00
25238;BME280;13185;50.872;5.306;2024-01-16T12:20:26;100613.44;;;-0.15;100.00
25238;BME280;13185;50.872;5.306;2024-01-16T12:23:06;100604.53;;;-0.11;100.00
25238;BME280;13185;50.872;5.306;2024-01-16T12:25:34;100603.63;;;-0.09;100.00
25238;BME280;13185;50.872;5.306;2024-01-16T12:28:07;100595.63;;;-0.06;100.00
25238;BME280;13185;50.872;5.306;2024-01-16T12:30:34;100585.91;;;-0.04;100.00
25238;BME280;13185;50.872;5.306;2024-01-16T12:33:13;100584.94;;;0.01;100.00
25238;BME280;13185;50.872;5.306;2024-01-16T12:35:43;100579.59;;;0.02;98.69
25238;BME280;13185;50.872;5.306;2024-01-16T12:38:11;100575.97;;;0.06;98.56
25238;BME280;13185;50.872;5.306;2024-01-16T12:40:47;100576.75;;;0.10;98.82
25238;BME280;13185;50.872;5.306;2024-01-16T12:43:13;100570.63;;;0.09;97.84
25238;BME280;13185;50.872;5.306;2024-01-16T12:45:39;100567.91;;;0.12;97.87